Time;durP1;ratioP1;P1;durP2;ratioP2;P2;SDS_P1;SDS_P2;PMS_P1;PMS_P2;Temp;Humidity;BMP_temperature;BMP_pressure;BME280_temperature;BME280_humidity;BME280_pressure;Samples;Min_cycle;Max_cycle;Signal;HPM_P1;HPM_P2
2021/10/21 00:00:13;;;;;;;2.72;1.95;;;;;;;;;;5013453;28;20038;-54
2021/10/21 00:02:39;;;;;;;3.50;1.85;;;;;;;;;;5013701;28;20026;-54
2021/10/21 00:05:05;;;;;;;4.18;2.17;;;;;;;;;;5013126;28;20526;-56
2021/10/21 00:07:31;;;;;;;7.60;2.47;;;;;;;;;;5013699;28;20033;-52
2021/10/21 00:09:59;;;;;;;3.00;1.90;;;;;;;;;;5013446;28;20038;-51
2021/10/21 00:12:25;;;;;;;3.58;2.05;;;;;;;;;;5013529;28;20030;-51
2021/10/21 00:14:51;;;;;;;3.38;2.38;;;;;;;;;;5013506;28;20030;-53
2021/10/21 00:17:17;;;;;;;3.47;1.80;;;;;;;;;;5013409;28;20104;-52
2021/10/21 00:19:43;;;;;;;3.08;2.15;;;;;;;;;;5013001;28;20108;-52
2021/10/21 00:22:09;;;;;;;4.85;2.00;;;;;;;;;;5013555;28;20030;-52
2021/10/21 00:24:35;;;;;;;3.65;2.20;;;;;;;;;;5011891;28;20060;-55
2021/10/21 00:27:01;;;;;;;2.90;1.85;;;;;;;;;;5010691;28;20025;-54
2021/10/21 00:29:27;;;;;;;3.95;2.05;;;;;;;;;;5012710;28;20130;-57
2021/10/21 00:31:53;;;;;;;3.55;1.90;;;;;;;;;;5013252;28;20045;-55
2021/10/21 00:34:19;;;;;;;3.38;2.13;;;;;;;;;;5012684;28;20045;-58
2021/10/21 00:36:45;;;;;;;3.42;2.13;;;;;;;;;;5013365;28;20041;-52
2021/10/21 00:39:11;;;;;;;2.85;1.80;;;;;;;;;;5013024;28;20434;-54
2021/10/21 00:41:38;;;;;;;4.25;2.30;;;;;;;;;;5013181;28;20026;-53
2021/10/21 00:44:09;;;;;;;4.05;2.15;;;;;;;;;;5011772;28;20412;-54
2021/10/21 00:46:38;;;;;;;3.70;2.20;;;;;;;;;;5013151;28;20030;-52
2021/10/21 00:49:07;;;;;;;4.13;2.28;;;;;;;;;;5013067;28;20026;-55
2021/10/21 00:51:34;;;;;;;3.45;1.98;;;;;;;;;;5013043;28;20108;-57
2021/10/21 00:54:02;;;;;;;4.05;2.20;;;;;;;;;;5010705;28;20113;-54
2021/10/21 00:56:28;;;;;;;3.72;2.13;;;;;;;;;;5012292;28;20124;-54
2021/10/21 00:58:54;;;;;;;4.05;2.53;;;;;;;;;;5012814;28;20038;-52
2021/10/21 01:01:20;;;;;;;3.90;2.17;;;;;;;;;;5012581;28;20038;-52
2021/10/21 01:03:46;;;;;;;3.72;2.17;;;;;;;;;;5012523;28;20360;-54
2021/10/21 01:06:13;;;;;;;3.38;2.08;;;;;;;;;;5012799;28;20026;-51
2021/10/21 01:08:39;;;;;;;3.80;2.10;;;;;;;;;;5011851;28;20160;-57
2021/10/21 01:11:06;;;;;;;6.93;2.30;;;;;;;;;;5012040;28;20034;-52
2021/10/21 01:13:32;;;;;;;3.35;2.25;;;;;;;;;;5011939;28;20087;-56
2021/10/21 01:16:10;;;;;;;5.63;2.75;;;;;;;;;;5012519;28;20025;-56
2021/10/21 01:18:36;;;;;;;4.32;2.20;;;;;;;;;;5012429;28;20088;-53
2021/10/21 01:21:02;;;;;;;3.80;2.50;;;;;;;;;;5012664;28;20022;-51
2021/10/21 01:23:28;;;;;;;4.25;2.33;;;;;;;;;;5012068;28;20113;-52
2021/10/21 01:25:55;;;;;;;3.42;2.33;;;;;;;;;;5012490;28;20030;-54
2021/10/21 01:28:21;;;;;;;5.65;2.55;;;;;;;;;;5012208;28;20049;-52
2021/10/21 01:30:47;;;;;;;3.47;2.25;;;;;;;;;;5012231;28;20025;-52
2021/10/21 01:33:13;;;;;;;3.55;2.17;;;;;;;;;;5011748;28;20104;-52
2021/10/21 01:35:39;;;;;;;5.22;2.72;;;;;;;;;;5011481;28;20514;-58
2021/10/21 01:38:05;;;;;;;4.63;2.58;;;;;;;;;;5012047;28;20032;-54
2021/10/21 01:40:31;;;;;;;5.75;2.30;;;;;;;;;;5012299;28;20497;-54
2021/10/21 01:42:58;;;;;;;4.22;2.55;;;;;;;;;;5011984;28;20033;-53
2021/10/21 01:45:32;;;;;;;4.47;2.40;;;;;;;;;;5012026;28;20482;-58
2021/10/21 01:48:00;;;;;;;2.80;1.90;;;;;;;;;;5012566;28;20034;-56
2021/10/21 01:50:27;;;;;;;4.07;2.60;;;;;;;;;;5011654;28;20033;-58
2021/10/21 01:52:53;;;;;;;5.05;2.70;;;;;;;;;;5005297;28;20033;-55
2021/10/21 01:55:20;;;;;;;5.25;2.30;;;;;;;;;;5011584;28;20097;-55
2021/10/21 01:57:46;;;;;;;5.18;2.33;;;;;;;;;;5010962;28;20030;-52
2021/10/21 02:00:16;;;;;;;3.30;2.10;;;;;;;;;;5011985;28;20380;-53
2021/10/21 02:02:44;;;;;;;3.63;1.98;;;;;;;;;;5008038;28;20029;-55
2021/10/21 02:05:10;;;;;;;2.25;1.90;;;;;;;;;;5011776;28;20142;-58
2021/10/21 02:07:36;;;;;;;3.70;1.90;;;;;;;;;;5011469;28;20025;-52
2021/10/21 02:10:04;;;;;;;3.22;2.08;;;;;;;;;;5004685;28;20374;-53
2021/10/21 02:12:30;;;;;;;3.90;2.15;;;;;;;;;;5011562;28;20034;-54
2021/10/21 02:14:56;;;;;;;2.78;1.83;;;;;;;;;;5011980;28;20026;-51
2021/10/21 02:17:23;;;;;;;4.32;1.95;;;;;;;;;;5012007;28;20053;-51
2021/10/21 02:19:49;;;;;;;2.25;1.63;;;;;;;;;;5011511;28;20038;-52
2021/10/21 02:22:15;;;;;;;2.17;1.60;;;;;;;;;;5010722;28;20014;-51
2021/10/21 02:24:41;;;;;;;3.63;1.88;;;;;;;;;;5011805;28;20034;-56
2021/10/21 02:27:07;;;;;;;2.92;1.80;;;;;;;;;;5011180;28;20036;-58
2021/10/21 02:29:33;;;;;;;2.63;1.80;;;;;;;;;;5011627;28;20502;-56
2021/10/21 02:31:59;;;;;;;4.05;1.40;;;;;;;;;;5011607;28;20050;-55
2021/10/21 02:34:25;;;;;;;2.13;1.50;;;;;;;;;;5011332;28;20385;-53
2021/10/21 02:36:51;;;;;;;2.65;1.98;;;;;;;;;;5011416;28;20056;-52
2021/10/21 02:39:17;;;;;;;3.17;2.00;;;;;;;;;;5011497;28;20026;-52
2021/10/21 02:41:44;;;;;;;2.65;1.65;;;;;;;;;;5011721;28;20037;-56
2021/10/21 02:44:10;;;;;;;5.45;1.42;;;;;;;;;;5011724;28;20100;-57
2021/10/21 02:46:36;;;;;;;2.40;1.50;;;;;;;;;;5006865;28;20374;-53
2021/10/21 02:49:02;;;;;;;2.47;1.40;;;;;;;;;;5014679;28;20030;-58
2021/10/21 02:51:28;;;;;;;2.47;1.60;;;;;;;;;;5014679;28;20042;-51
2021/10/21 02:53:53;;;;;;;1.73;1.30;;;;;;;;;;5014878;28;20022;-54
2021/10/21 02:56:19;;;;;;;2.83;1.33;;;;;;;;;;5014617;28;20084;-56
2021/10/21 02:58:45;;;;;;;1.55;1.10;;;;;;;;;;5015019;28;20034;-57
2021/10/21 03:01:11;;;;;;;3.08;1.40;;;;;;;;;;5014468;28;20029;-56
2021/10/21 03:03:38;;;;;;;3.45;1.45;;;;;;;;;;5014566;28;20493;-58
2021/10/21 03:06:04;;;;;;;2.70;1.20;;;;;;;;;;5014761;28;20025;-53
2021/10/21 03:08:29;;;;;;;2.35;1.42;;;;;;;;;;5014294;28;20042;-53
2021/10/21 03:10:55;;;;;;;1.80;1.20;;;;;;;;;;5014719;28;20054;-55
2021/10/21 03:13:21;;;;;;;3.17;1.20;;;;;;;;;;5014634;28;20060;-55
2021/10/21 03:15:47;;;;;;;2.80;1.38;;;;;;;;;;5014530;28;20529;-53
2021/10/21 03:18:13;;;;;;;2.95;1.85;;;;;;;;;;5014685;28;20382;-53
2021/10/21 03:20:39;;;;;;;2.58;1.40;;;;;;;;;;5014514;28;20031;-52
2021/10/21 03:23:05;;;;;;;2.17;1.30;;;;;;;;;;5013935;28;20076;-56
2021/10/21 03:25:31;;;;;;;2.00;1.40;;;;;;;;;;5010301;28;20813;-52
2021/10/21 03:27:57;;;;;;;2.25;1.20;;;;;;;;;;5008758;28;20033;-52
2021/10/21 03:30:23;;;;;;;2.20;1.10;;;;;;;;;;5013921;28;20706;-54
2021/10/21 03:32:50;;;;;;;2.28;1.30;;;;;;;;;;5014195;28;20116;-58
2021/10/21 03:35:16;;;;;;;1.27;0.88;;;;;;;;;;5014326;28;20105;-57
2021/10/21 03:37:42;;;;;;;1.58;1.15;;;;;;;;;;5013509;28;20116;-56
2021/10/21 03:40:09;;;;;;;5.13;1.30;;;;;;;;;;5014010;28;20038;-53
2021/10/21 03:42:35;;;;;;;3.35;1.30;;;;;;;;;;5014007;28;20087;-52
2021/10/21 03:45:01;;;;;;;3.78;1.80;;;;;;;;;;5008208;28;20422;-58
2021/10/21 03:47:28;;;;;;;1.85;1.20;;;;;;;;;;5012857;28;20030;-54
2021/10/21 03:49:53;;;;;;;1.90;1.10;;;;;;;;;;5013601;28;20030;-56
2021/10/21 03:52:20;;;;;;;1.65;1.20;;;;;;;;;;5013808;28;20474;-57
2021/10/21 03:54:46;;;;;;;1.02;0.80;;;;;;;;;;5013506;28;20040;-53
2021/10/21 03:57:12;;;;;;;2.53;1.50;;;;;;;;;;5014178;28;20030;-54
2021/10/21 03:59:38;;;;;;;2.45;0.90;;;;;;;;;;5013557;28;20042;-53
2021/10/21 04:02:05;;;;;;;1.33;0.90;;;;;;;;;;5013177;28;20459;-52
2021/10/21 04:04:31;;;;;;;2.42;1.20;;;;;;;;;;5013831;28;20106;-53
2021/10/21 04:06:57;;;;;;;2.00;0.73;;;;;;;;;;5013256;28;20112;-54
2021/10/21 04:09:23;;;;;;;1.05;0.80;;;;;;;;;;5013624;28;20096;-56
2021/10/21 04:11:49;;;;;;;2.63;1.10;;;;;;;;;;5013818;28;20497;-51
2021/10/21 04:14:15;;;;;;;1.13;0.73;;;;;;;;;;5013032;28;20054;-53
2021/10/21 04:16:41;;;;;;;1.75;0.70;;;;;;;;;;5013464;28;20057;-53
2021/10/21 04:19:07;;;;;;;0.85;0.70;;;;;;;;;;5012783;28;20155;-51
2021/10/21 04:21:33;;;;;;;3.80;0.80;;;;;;;;;;5013601;28;20489;-52
2021/10/21 04:23:59;;;;;;;0.93;0.50;;;;;;;;;;5012453;28;20037;-52
2021/10/21 04:26:25;;;;;;;1.00;0.55;;;;;;;;;;5013159;28;20109;-52
2021/10/21 04:28:51;;;;;;;1.48;0.60;;;;;;;;;;5013315;28;20104;-53
2021/10/21 04:31:17;;;;;;;1.48;0.70;;;;;;;;;;5012903;28;20113;-56
2021/10/21 04:33:43;;;;;;;0.63;0.50;;;;;;;;;;5011858;28;20136;-56
2021/10/21 04:36:09;;;;;;;0.60;0.57;;;;;;;;;;5012678;28;20125;-55
2021/10/21 04:38:35;;;;;;;0.95;0.57;;;;;;;;;;5013204;28;20037;-56
2021/10/21 04:41:01;;;;;;;0.90;0.60;;;;;;;;;;5013288;28;20018;-58
2021/10/21 04:43:27;;;;;;;1.65;1.00;;;;;;;;;;5012045;28;20471;-55
2021/10/21 04:45:53;;;;;;;1.88;0.80;;;;;;;;;;5012867;28;20034;-54
2021/10/21 04:48:19;;;;;;;2.85;0.70;;;;;;;;;;5012613;28;20105;-54
2021/10/21 04:50:45;;;;;;;0.90;0.50;;;;;;;;;;5013047;28;20454;-53
2021/10/21 04:53:12;;;;;;;3.33;0.68;;;;;;;;;;5012594;28;20030;-54
2021/10/21 04:55:38;;;;;;;1.05;0.60;;;;;;;;;;5012642;28;20044;-52
2021/10/21 04:58:04;;;;;;;0.80;0.50;;;;;;;;;;5012855;28;20076;-54
2021/10/21 05:00:31;;;;;;;0.70;0.50;;;;;;;;;;5012845;28;20034;-51
2021/10/21 05:02:57;;;;;;;0.95;0.60;;;;;;;;;;5012723;28;20433;-51
2021/10/21 05:05:23;;;;;;;0.50;0.32;;;;;;;;;;5012459;28;20026;-55
2021/10/21 05:07:49;;;;;;;0.55;0.40;;;;;;;;;;5006799;28;20470;-52
2021/10/21 05:10:15;;;;;;;1.15;0.60;;;;;;;;;;5010605;28;20041;-53
2021/10/21 05:12:41;;;;;;;1.15;0.52;;;;;;;;;;5011914;28;20026;-51
2021/10/21 05:15:07;;;;;;;1.05;0.60;;;;;;;;;;5012341;28;20386;-54
2021/10/21 05:17:33;;;;;;;3.13;0.70;;;;;;;;;;5012070;28;20505;-53
2021/10/21 05:20:00;;;;;;;0.90;0.57;;;;;;;;;;5012225;28;20109;-53
2021/10/21 05:22:26;;;;;;;3.67;0.55;;;;;;;;;;5012519;28;20088;-57
2021/10/21 05:24:52;;;;;;;0.43;0.38;;;;;;;;;;5012293;28;20032;-52
2021/10/21 05:27:18;;;;;;;0.57;0.40;;;;;;;;;;5012303;28;20104;-53
2021/10/21 05:29:44;;;;;;;1.15;0.60;;;;;;;;;;5011062;28;20040;-56
2021/10/21 05:32:10;;;;;;;0.50;0.50;;;;;;;;;;5011868;28;20053;-53
2021/10/21 05:34:37;;;;;;;0.40;0.40;;;;;;;;;;5011895;28;20030;-54
2021/10/21 05:37:04;;;;;;;0.95;0.60;;;;;;;;;;5012450;28;20030;-55
2021/10/21 05:39:30;;;;;;;1.02;0.60;;;;;;;;;;5011748;28;20125;-56
2021/10/21 05:41:56;;;;;;;2.83;0.45;;;;;;;;;;5011202;28;20033;-58
2021/10/21 05:44:22;;;;;;;0.90;0.40;;;;;;;;;;5011247;28;20030;-57
2021/10/21 05:46:49;;;;;;;0.50;0.40;;;;;;;;;;5012146;28;20022;-52
2021/10/21 05:49:16;;;;;;;0.80;0.50;;;;;;;;;;5012278;28;20041;-55
2021/10/21 05:51:41;;;;;;;1.27;0.70;;;;;;;;;;5012012;28;20070;-57
2021/10/21 05:54:07;;;;;;;1.85;0.57;;;;;;;;;;5011617;28;20064;-54
2021/10/21 05:56:33;;;;;;;0.50;0.40;;;;;;;;;;5011776;28;20038;-51
2021/10/21 05:58:59;;;;;;;1.33;0.57;;;;;;;;;;5012022;28;20038;-51
2021/10/21 06:01:25;;;;;;;0.30;0.30;;;;;;;;;;5012045;28;20026;-52
2021/10/21 06:03:51;;;;;;;1.42;0.50;;;;;;;;;;5012098;28;20021;-53
2021/10/21 06:06:17;;;;;;;0.63;0.40;;;;;;;;;;5011679;28;20026;-52
2021/10/21 06:08:45;;;;;;;0.63;0.45;;;;;;;;;;5011888;28;20026;-55
2021/10/21 06:11:11;;;;;;;0.93;0.60;;;;;;;;;;5011868;28;20046;-50
2021/10/21 06:13:37;;;;;;;0.60;0.40;;;;;;;;;;5011315;28;20033;-53
2021/10/21 06:16:04;;;;;;;2.13;0.30;;;;;;;;;;5011678;28;20034;-53
2021/10/21 06:18:30;;;;;;;0.77;0.52;;;;;;;;;;5010392;28;20022;-54
2021/10/21 06:20:56;;;;;;;0.60;0.50;;;;;;;;;;5011561;28;20037;-53
2021/10/21 06:23:24;;;;;;;1.48;0.50;;;;;;;;;;5014881;28;20029;-53
2021/10/21 06:25:50;;;;;;;1.55;0.50;;;;;;;;;;5014257;28;20045;-52
2021/10/21 06:28:16;;;;;;;0.88;0.55;;;;;;;;;;5015221;28;20117;-56
2021/10/21 06:30:42;;;;;;;1.00;0.65;;;;;;;;;;5015068;28;20456;-52
2021/10/21 06:33:09;;;;;;;0.65;0.50;;;;;;;;;;5015349;28;20144;-53
2021/10/21 06:35:35;;;;;;;1.13;0.63;;;;;;;;;;5009845;28;20454;-52
2021/10/21 06:38:01;;;;;;;0.63;0.50;;;;;;;;;;5014754;28;20025;-52
2021/10/21 06:40:27;;;;;;;2.15;0.40;;;;;;;;;;5012908;28;20030;-56
2021/10/21 06:42:54;;;;;;;1.27;0.50;;;;;;;;;;5014568;28;20027;-55
2021/10/21 06:45:20;;;;;;;1.75;0.82;;;;;;;;;;5012622;28;20099;-50
2021/10/21 06:47:47;;;;;;;0.28;0.20;;;;;;;;;;5012866;28;20109;-51
2021/10/21 06:50:13;;;;;;;1.02;0.43;;;;;;;;;;5013775;28;20033;-52
2021/10/21 06:52:40;;;;;;;1.50;0.32;;;;;;;;;;5014660;28;20061;-52
2021/10/21 06:55:07;;;;;;;0.65;0.47;;;;;;;;;;5011634;28;20113;-54
2021/10/21 06:57:33;;;;;;;0.95;0.38;;;;;;;;;;5014917;28;20025;-57
2021/10/21 07:00:00;;;;;;;1.25;0.40;;;;;;;;;;5014590;28;20025;-55
2021/10/21 07:02:26;;;;;;;0.50;0.30;;;;;;;;;;5014252;28;20032;-59
2021/10/21 07:04:52;;;;;;;2.13;0.47;;;;;;;;;;5014515;28;20609;-51
2021/10/21 07:07:18;;;;;;;1.13;0.30;;;;;;;;;;5014505;28;20025;-50
2021/10/21 07:09:44;;;;;;;0.88;0.47;;;;;;;;;;5013756;28;20033;-54
2021/10/21 07:12:10;;;;;;;3.00;0.77;;;;;;;;;;5013712;28;20022;-51
2021/10/21 07:14:36;;;;;;;1.95;0.50;;;;;;;;;;5012080;28;20112;-53
2021/10/21 07:17:02;;;;;;;0.93;0.30;;;;;;;;;;5013656;28;20033;-50
2021/10/21 07:19:28;;;;;;;2.58;0.43;;;;;;;;;;5010884;28;20116;-52
2021/10/21 07:21:54;;;;;;;2.88;0.25;;;;;;;;;;5012807;28;20149;-51
2021/10/21 07:24:20;;;;;;;0.63;0.30;;;;;;;;;;5012954;28;20069;-52
2021/10/21 07:26:46;;;;;;;1.73;0.35;;;;;;;;;;5012167;28;20471;-52
2021/10/21 07:29:12;;;;;;;1.20;0.40;;;;;;;;;;5013893;28;20061;-51
2021/10/21 07:31:38;;;;;;;2.92;0.40;;;;;;;;;;5014337;28;20048;-51
2021/10/21 07:34:04;;;;;;;1.90;0.30;;;;;;;;;;5012934;28;20045;-55
2021/10/21 07:36:30;;;;;;;0.45;0.20;;;;;;;;;;5014319;28;20441;-54
2021/10/21 07:38:56;;;;;;;1.05;0.30;;;;;;;;;;5013846;28;20037;-54
2021/10/21 07:41:25;;;;;;;0.55;0.28;;;;;;;;;;5013000;28;20044;-55
2021/10/21 07:43:51;;;;;;;3.00;0.30;;;;;;;;;;5008895;28;20179;-53
2021/10/21 07:46:17;;;;;;;4.30;0.25;;;;;;;;;;5012071;28;20541;-51
2021/10/21 07:48:43;;;;;;;2.45;0.30;;;;;;;;;;5012095;28;20033;-50
2021/10/21 07:51:09;;;;;;;1.50;0.40;;;;;;;;;;5003387;28;20049;-54
2021/10/21 07:53:35;;;;;;;1.23;0.65;;;;;;;;;;5011807;28;20092;-50
2021/10/21 07:56:01;;;;;;;4.32;0.45;;;;;;;;;;5010041;28;20053;-53
2021/10/21 07:58:27;;;;;;;4.47;0.63;;;;;;;;;;5012936;28;20099;-53
2021/10/21 08:00:53;;;;;;;1.02;0.38;;;;;;;;;;5008244;28;20018;-50
2021/10/21 08:03:20;;;;;;;0.20;0.20;;;;;;;;;;5011793;28;20021;-56
2021/10/21 08:05:46;;;;;;;2.38;0.38;;;;;;;;;;5012084;28;20091;-52
2021/10/21 08:08:12;;;;;;;0.85;0.30;;;;;;;;;;5010482;28;20072;-55
2021/10/21 08:10:38;;;;;;;2.35;0.65;;;;;;;;;;5013852;28;20644;-53
2021/10/21 08:13:04;;;;;;;0.30;0.20;;;;;;;;;;5008009;28;20037;-55
2021/10/21 08:15:30;;;;;;;2.45;0.50;;;;;;;;;;5012536;28;20034;-52
2021/10/21 08:17:57;;;;;;;0.98;0.32;;;;;;;;;;5013674;28;20037;-51
2021/10/21 08:20:29;;;;;;;0.88;0.30;;;;;;;;;;5003501;28;20060;-55
2021/10/21 08:22:55;;;;;;;2.50;0.30;;;;;;;;;;5012640;28;20084;-56
2021/10/21 08:25:25;;;;;;;2.85;0.43;;;;;;;;;;5010606;28;20037;-50
2021/10/21 08:27:51;;;;;;;0.57;0.30;;;;;;;;;;5013318;28;20024;-53
2021/10/21 08:30:22;;;;;;;0.25;0.15;;;;;;;;;;5013049;28;20113;-50
2021/10/21 08:32:48;;;;;;;3.55;0.47;;;;;;;;;;5011823;28;20060;-53
2021/10/21 08:35:15;;;;;;;0.28;0.20;;;;;;;;;;5013140;28;20049;-51
2021/10/21 08:37:41;;;;;;;1.02;0.30;;;;;;;;;;5012896;28;20033;-50
2021/10/21 08:40:08;;;;;;;0.35;0.15;;;;;;;;;;5011617;28;20120;-55
2021/10/21 08:42:35;;;;;;;0.20;0.20;;;;;;;;;;5009814;28;20050;-56
2021/10/21 08:45:01;;;;;;;1.30;0.10;;;;;;;;;;5011599;28;20022;-52
2021/10/21 08:47:27;;;;;;;0.20;0.15;;;;;;;;;;5012173;28;20022;-56
2021/10/21 08:49:55;;;;;;;0.40;0.30;;;;;;;;;;5011842;28;20100;-53
2021/10/21 08:52:21;;;;;;;4.15;0.52;;;;;;;;;;5012903;28;20022;-53
2021/10/21 08:54:47;;;;;;;1.83;0.28;;;;;;;;;;5010190;28;22134;-54
2021/10/21 08:57:14;;;;;;;1.27;0.10;;;;;;;;;;5013604;28;20029;-54
2021/10/21 08:59:44;;;;;;;0.98;0.25;;;;;;;;;;5011393;28;20037;-50
2021/10/21 09:02:16;;;;;;;0.98;0.40;;;;;;;;;;5011451;28;20034;-51
2021/10/21 09:10:12;;;;;;;2.33;0.47;;;;;;;;;;5011810;28;20088;-53
2021/10/21 09:12:40;;;;;;;3.25;0.38;;;;;;;;;;5006831;28;20129;-55
2021/10/21 09:15:09;;;;;;;0.55;0.35;;;;;;;;;;5012070;28;20076;-51
2021/10/21 09:17:36;;;;;;;1.85;0.38;;;;;;;;;;5011910;28;20029;-50
2021/10/21 09:20:22;;;;;;;5.18;0.90;;;;;;;;;;5005896;28;20069;-50
2021/10/21 09:22:56;;;;;;;6.25;0.30;;;;;;;;;;5009308;28;20026;-55
2021/10/21 09:25:23;;;;;;;1.23;0.32;;;;;;;;;;5010193;28;20538;-55
2021/10/21 09:27:49;;;;;;;0.80;0.40;;;;;;;;;;5010818;28;20487;-54
2021/10/21 09:30:22;;;;;;;0.60;0.20;;;;;;;;;;5011951;28;20524;-53
2021/10/21 09:32:49;;;;;;;0.93;0.45;;;;;;;;;;5005619;28;20481;-55
2021/10/21 09:35:18;;;;;;;3.30;0.40;;;;;;;;;;5011195;28;20022;-55
2021/10/21 09:37:46;;;;;;;0.68;0.13;;;;;;;;;;5010302;28;20486;-51
2021/10/21 09:40:13;;;;;;;3.08;0.35;;;;;;;;;;5005576;28;20030;-55
2021/10/21 09:42:44;;;;;;;0.20;0.10;;;;;;;;;;5010015;28;20039;-54
2021/10/21 09:45:17;;;;;;;1.95;0.20;;;;;;;;;;5008952;28;20033;-53
2021/10/21 09:47:45;;;;;;;9.38;0.43;;;;;;;;;;5009714;28;20589;-53
2021/10/21 09:50:17;;;;;;;0.88;0.32;;;;;;;;;;5010754;28;20117;-55
2021/10/21 09:53:00;;;;;;;2.42;0.30;;;;;;;;;;5011102;28;20061;-56
2021/10/21 09:55:27;;;;;;;0.60;0.30;;;;;;;;;;5010297;28;20036;-57
2021/10/21 09:57:58;;;;;;;4.03;0.75;;;;;;;;;;5015970;28;20038;-53
2021/10/21 10:00:24;;;;;;;4.82;0.30;;;;;;;;;;5016522;28;20025;-57
2021/10/21 10:02:50;;;;;;;3.65;0.40;;;;;;;;;;5014214;28;20073;-54
2021/10/21 10:05:16;;;;;;;0.95;0.28;;;;;;;;;;5015655;28;20028;-55
2021/10/21 10:07:43;;;;;;;2.92;0.40;;;;;;;;;;5014900;28;20030;-53
2021/10/21 10:10:09;;;;;;;0.90;0.20;;;;;;;;;;5014004;28;20026;-55
2021/10/21 10:12:35;;;;;;;1.90;0.57;;;;;;;;;;5013079;28;20105;-56
2021/10/21 10:15:02;;;;;;;4.75;0.20;;;;;;;;;;5014793;28;20532;-55
2021/10/21 10:17:29;;;;;;;8.07;0.47;;;;;;;;;;5010962;28;20036;-52
2021/10/21 10:19:56;;;;;;;0.10;0.10;;;;;;;;;;5012751;28;20033;-51
2021/10/21 10:22:27;;;;;;;0.95;0.20;;;;;;;;;;5014389;28;20037;-52
2021/10/21 10:24:53;;;;;;;0.35;0.25;;;;;;;;;;5014910;28;20033;-52
2021/10/21 10:27:23;;;;;;;2.78;0.20;;;;;;;;;;5010257;28;20426;-54
2021/10/21 10:29:49;;;;;;;2.35;0.20;;;;;;;;;;5006609;28;20029;-54
2021/10/21 10:32:32;;;;;;;1.67;0.40;;;;;;;;;;5005266;28;20110;-51
2021/10/21 10:35:00;;;;;;;1.55;0.20;;;;;;;;;;5015478;28;20034;-56
2021/10/21 10:37:26;;;;;;;1.85;0.10;;;;;;;;;;5009032;28;20087;-56
2021/10/21 10:39:57;;;;;;;1.75;0.20;;;;;;;;;;5013045;28;20030;-51
2021/10/21 10:42:43;;;;;;;0.30;0.20;;;;;;;;;;5008470;28;20025;-58
2021/10/21 10:45:13;;;;;;;0.05;0.05;;;;;;;;;;5015511;28;20116;-54
2021/10/21 10:47:49;;;;;;;3.05;0.50;;;;;;;;;;5013233;28;20101;-53
2021/10/21 10:50:15;;;;;;;5.75;0.65;;;;;;;;;;5015214;28;20053;-53
2021/10/21 10:52:45;;;;;;;6.45;0.52;;;;;;;;;;5015268;28;20488;-52
2021/10/21 10:55:25;;;;;;;1.40;0.40;;;;;;;;;;5013996;28;20032;-51
2021/10/21 10:57:52;;;;;;;0.38;0.20;;;;;;;;;;5013202;28;20117;-52
2021/10/21 11:00:32;;;;;;;1.75;0.20;;;;;;;;;;5002552;28;20029;-55
2021/10/21 11:02:59;;;;;;;0.20;0.20;;;;;;;;;;5011788;28;20045;-52
2021/10/21 11:05:44;;;;;;;1.10;0.20;;;;;;;;;;5002645;28;20025;-51
2021/10/21 11:08:10;;;;;;;0.08;0.08;;;;;;;;;;5009699;28;20437;-53
2021/10/21 11:10:39;;;;;;;1.17;0.17;;;;;;;;;;5010181;28;20030;-53
2021/10/21 11:13:18;;;;;;;0.10;0.10;;;;;;;;;;5013689;28;20026;-51
2021/10/21 11:15:45;;;;;;;0.30;0.20;;;;;;;;;;5013303;28;20552;-53
2021/10/21 11:18:21;;;;;;;0.20;0.10;;;;;;;;;;5012949;28;20030;-51
2021/10/21 11:20:47;;;;;;;0.20;0.20;;;;;;;;;;5013030;28;20034;-54
2021/10/21 11:23:28;;;;;;;0.10;0.10;;;;;;;;;;5013833;28;20034;-54
2021/10/21 11:25:59;;;;;;;0.20;0.17;;;;;;;;;;5013713;28;20083;-54
2021/10/21 11:28:33;;;;;;;0.13;0.13;;;;;;;;;;5014362;28;20037;-53
2021/10/21 11:30:59;;;;;;;0.20;0.10;;;;;;;;;;5013949;28;20118;-53
2021/10/21 11:33:28;;;;;;;0.13;0.13;;;;;;;;;;5013389;28;20156;-51
2021/10/21 11:35:58;;;;;;;1.38;0.30;;;;;;;;;;5013082;28;20029;-53
2021/10/21 11:38:24;;;;;;;0.30;0.20;;;;;;;;;;5013914;28;20076;-55
2021/10/21 11:40:55;;;;;;;0.17;0.15;;;;;;;;;;5011844;28;20029;-52
2021/10/21 11:43:35;;;;;;;0.30;0.20;;;;;;;;;;5011225;28;20026;-56
2021/10/21 11:46:03;;;;;;;0.57;0.20;;;;;;;;;;5013131;28;20038;-57
2021/10/21 11:48:34;;;;;;;0.75;0.10;;;;;;;;;;5012990;28;20034;-55
2021/10/21 11:51:02;;;;;;;1.33;0.30;;;;;;;;;;5006362;28;20076;-55
2021/10/21 11:53:29;;;;;;;2.60;0.25;;;;;;;;;;5013292;28;20044;-52
2021/10/21 11:55:55;;;;;;;1.25;0.38;;;;;;;;;;5013126;28;20454;-56
2021/10/21 11:58:25;;;;;;;0.90;0.50;;;;;;;;;;5012723;28;20076;-51
2021/10/21 12:00:55;;;;;;;0.17;0.10;;;;;;;;;;5007981;28;20037;-55
2021/10/21 12:03:41;;;;;;;0.40;0.30;;;;;;;;;;5010773;28;20040;-57
2021/10/21 12:06:09;;;;;;;2.33;0.65;;;;;;;;;;5005236;28;20403;-52
2021/10/21 12:08:35;;;;;;;0.95;0.28;;;;;;;;;;5008798;28;20010;-55
2021/10/21 12:11:03;;;;;;;2.17;0.32;;;;;;;;;;5013495;28;20025;-52
2021/10/21 12:13:30;;;;;;;2.03;0.47;;;;;;;;;;5013639;28;20501;-53
2021/10/21 12:15:58;;;;;;;1.63;0.55;;;;;;;;;;5011480;28;20116;-52
2021/10/21 12:18:26;;;;;;;1.75;0.70;;;;;;;;;;5010818;28;20026;-53
2021/10/21 12:20:52;;;;;;;4.35;0.70;;;;;;;;;;5013091;28;20426;-57
2021/10/21 12:23:24;;;;;;;1.20;0.50;;;;;;;;;;5013740;28;20030;-57
2021/10/21 12:25:51;;;;;;;3.72;0.57;;;;;;;;;;5018516;28;20025;-58
2021/10/21 12:28:18;;;;;;;4.93;0.40;;;;;;;;;;5009519;28;20025;-52
2021/10/21 12:30:44;;;;;;;2.20;0.47;;;;;;;;;;5012493;28;20030;-57
2021/10/21 12:33:15;;;;;;;1.95;0.47;;;;;;;;;;5019758;28;20077;-53
2021/10/21 12:35:54;;;;;;;2.30;0.30;;;;;;;;;;5016822;28;20033;-54
2021/10/21 12:38:20;;;;;;;2.58;0.40;;;;;;;;;;5009255;28;20038;-56
2021/10/21 12:40:46;;;;;;;4.80;0.40;;;;;;;;;;5009443;28;20076;-57
2021/10/21 12:43:17;;;;;;;2.70;0.30;;;;;;;;;;5013523;28;20026;-54
2021/10/21 12:45:43;;;;;;;1.02;0.10;;;;;;;;;;5012135;28;20033;-52
2021/10/21 12:48:23;;;;;;;0.68;0.30;;;;;;;;;;5012032;28;20525;-54
2021/10/21 12:50:49;;;;;;;0.30;0.10;;;;;;;;;;5011977;28;20095;-55
2021/10/21 12:53:17;;;;;;;1.77;0.30;;;;;;;;;;5012199;28;20064;-52
2021/10/21 12:55:43;;;;;;;5.00;0.40;;;;;;;;;;5012625;28;20034;-54
2021/10/21 12:58:18;;;;;;;1.85;0.35;;;;;;;;;;5007980;28;20732;-52
2021/10/21 13:00:47;;;;;;;2.03;0.57;;;;;;;;;;5012361;28;20037;-51
2021/10/21 13:03:16;;;;;;;1.05;0.20;;;;;;;;;;5012346;28;20037;-57
2021/10/21 13:05:43;;;;;;;2.13;0.38;;;;;;;;;;5011744;28;20030;-52
2021/10/21 13:08:09;;;;;;;2.08;0.32;;;;;;;;;;5011891;28;20033;-53
2021/10/21 13:10:39;;;;;;;4.75;0.98;;;;;;;;;;5010303;28;20501;-54
2021/10/21 13:13:05;;;;;;;1.23;0.57;;;;;;;;;;5011448;28;20037;-52
2021/10/21 13:15:31;;;;;;;8.57;0.98;;;;;;;;;;5010451;28;20026;-52
2021/10/21 13:17:57;;;;;;;2.65;0.50;;;;;;;;;;5011382;28;20040;-56
2021/10/21 13:20:24;;;;;;;2.88;0.30;;;;;;;;;;5011732;28;20080;-53
2021/10/21 13:22:50;;;;;;;1.80;0.50;;;;;;;;;;5011686;28;20065;-54
2021/10/21 13:25:17;;;;;;;1.38;0.40;;;;;;;;;;5010838;28;20084;-56
2021/10/21 13:27:43;;;;;;;5.95;0.40;;;;;;;;;;5009862;28;20120;-52
2021/10/21 13:30:09;;;;;;;1.70;0.40;;;;;;;;;;5011510;28;20038;-53
2021/10/21 13:32:36;;;;;;;3.08;0.50;;;;;;;;;;5010931;28;20593;-53
2021/10/21 13:35:03;;;;;;;1.42;0.52;;;;;;;;;;5011884;28;20470;-52
2021/10/21 13:37:29;;;;;;;1.08;0.40;;;;;;;;;;5012001;28;20060;-54
2021/10/21 13:39:55;;;;;;;0.32;0.20;;;;;;;;;;5010512;28;20030;-52
2021/10/21 13:42:21;;;;;;;2.25;0.70;;;;;;;;;;5006971;28;20415;-55
2021/10/21 13:44:47;;;;;;;4.38;0.50;;;;;;;;;;5012466;28;20018;-55
2021/10/21 13:47:14;;;;;;;2.80;0.70;;;;;;;;;;5003473;28;20029;-52
2021/10/21 13:49:41;;;;;;;4.30;1.23;;;;;;;;;;5009682;28;20125;-57
2021/10/21 13:52:07;;;;;;;3.45;0.82;;;;;;;;;;5008383;28;20060;-56
2021/10/21 13:54:33;;;;;;;1.25;0.47;;;;;;;;;;5006216;28;20061;-58
2021/10/21 13:56:59;;;;;;;4.10;0.80;;;;;;;;;;5009512;28;20045;-53
2021/10/21 13:59:26;;;;;;;3.05;1.45;;;;;;;;;;5007573;28;20038;-56
2021/10/21 14:01:52;;;;;;;2.00;0.88;;;;;;;;;;5011450;28;20033;-57
2021/10/21 14:04:18;;;;;;;5.40;0.90;;;;;;;;;;5005827;28;20379;-53
2021/10/21 14:06:44;;;;;;;4.72;0.60;;;;;;;;;;5004617;28;20018;-50
2021/10/21 14:09:10;;;;;;;1.02;0.80;;;;;;;;;;5006802;28;20042;-53
2021/10/21 14:11:36;;;;;;;6.20;0.43;;;;;;;;;;5009455;28;20088;-53
2021/10/21 14:14:05;;;;;;;0.88;0.30;;;;;;;;;;5014198;28;20127;-54
2021/10/21 14:16:31;;;;;;;0.95;0.50;;;;;;;;;;5012358;28;20033;-52
2021/10/21 14:18:57;;;;;;;0.43;0.25;;;;;;;;;;5009143;28;20030;-52
2021/10/21 14:21:23;;;;;;;1.30;0.47;;;;;;;;;;5016558;28;20030;-56
2021/10/21 14:23:49;;;;;;;0.38;0.20;;;;;;;;;;5011355;28;20042;-53
2021/10/21 14:26:15;;;;;;;0.25;0.20;;;;;;;;;;5005125;28;20112;-56
2021/10/21 14:28:42;;;;;;;0.60;0.32;;;;;;;;;;5016703;28;20029;-58
2021/10/21 14:31:08;;;;;;;0.35;0.20;;;;;;;;;;5017617;28;20033;-57
2021/10/21 14:33:34;;;;;;;0.60;0.20;;;;;;;;;;5013808;28;20037;-55
2021/10/21 14:36:01;;;;;;;2.55;0.98;;;;;;;;;;5016122;28;20052;-55
2021/10/21 14:38:27;;;;;;;1.00;0.50;;;;;;;;;;5013447;28;20030;-51
2021/10/21 14:40:53;;;;;;;0.95;0.47;;;;;;;;;;5014311;28;20165;-58
2021/10/21 14:43:20;;;;;;;0.63;0.30;;;;;;;;;;5019185;28;20176;-54
2021/10/21 14:45:46;;;;;;;0.77;0.50;;;;;;;;;;5016464;28;20025;-54
2021/10/21 14:48:12;;;;;;;2.22;0.60;;;;;;;;;;5016080;28;20113;-53